sensor_id;sensor_type;location;lat;lon;timestamp;pressure;altitude;pressure_sealevel;temperature;humidity
51099;BME280;37146;48.210;16.234;2023-04-25T00:00:45;98047.81;;;8.76;99.75
51099;BME280;37146;48.210;16.234;2023-04-25T00:03:10;98055.69;;;8.77;100.00
51099;BME280;37146;48.210;16.234;2023-04-25T00:05:36;98060.16;;;8.77;98.46
51099;BME280;37146;48.210;16.234;2023-04-25T00:08:02;98062.25;;;8.72;97.52
51099;BME280;37146;48.210;16.234;2023-04-25T00:10:27;98061.59;;;8.82;95.46
51099;BME280;37146;48.210;16.234;2023-04-25T00:12:53;98062.75;;;8.78;97.34
51099;BME280;37146;48.210;16.234;2023-04-25T00:15:18;98050.19;;;8.80;97.85
51099;BME280;37146;48.210;16.234;2023-04-25T00:17:43;98054.16;;;8.73;97.44
51099;BME280;37146;48.210;16.234;2023-04-25T00:20:10;98059.69;;;8.70;98.36
51099;BME280;37146;48.210;16.234;2023-04-25T00:22:36;98051.59;;;8.72;98.56
51099;BME280;37146;48.210;16.234;2023-04-25T00:25:03;98049.03;;;8.70;97.72
51099;BME280;37146;48.210;16.234;2023-04-25T00:27:28;98047.88;;;8.74;97.66
51099;BME280;37146;48.210;16.234;2023-04-25T00:29:53;98050.72;;;8.71;97.28
51099;BME280;37146;48.210;16.234;2023-04-25T00:32:19;98047.09;;;8.72;96.43
51099;BME280;37146;48.210;16.234;2023-04-25T00:34:44;98041.78;;;8.72;94.39
51099;BME280;37146;48.210;16.234;2023-04-25T00:37:09;98048.75;;;8.75;95.60
51099;BME280;37146;48.210;16.234;2023-04-25T00:39:35;98046.94;;;8.75;95.02
51099;BME280;37146;48.210;16.234;2023-04-25T00:42:00;98045.66;;;8.66;97.75
51099;BME280;37146;48.210;16.234;2023-04-25T00:44:27;98036.66;;;8.69;95.93
51099;BME280;37146;48.210;16.234;2023-04-25T00:46:53;98041.38;;;8.64;95.88
51099;BME280;37146;48.210;16.234;2023-04-25T00:49:18;98036.44;;;8.72;94.47
51099;BME280;37146;48.210;16.234;2023-04-25T00:51:43;98043.47;;;8.59;94.56
51099;BME280;37146;48.210;16.234;2023-04-25T00:54:10;98044.72;;;8.68;95.83
51099;BME280;37146;48.210;16.234;2023-04-25T00:56:35;98043.69;;;8.70;95.10
51099;BME280;37146;48.210;16.234;2023-04-25T00:59:01;98043.88;;;8.67;95.18
51099;BME280;37146;48.210;16.234;2023-04-25T01:01:26;98049.09;;;8.69;95.66
51099;BME280;37146;48.210;16.234;2023-04-25T01:03:51;98043.22;;;8.63;94.97
51099;BME280;37146;48.210;16.234;2023-04-25T01:06:18;98043.22;;;8.63;96.47
51099;BME280;37146;48.210;16.234;2023-04-25T01:08:43;98042.78;;;8.55;97.99
51099;BME280;37146;48.210;16.234;2023-04-25T01:11:08;98047.00;;;8.59;96.54
51099;BME280;37146;48.210;16.234;2023-04-25T01:13:34;98048.53;;;8.63;97.59
51099;BME280;37146;48.210;16.234;2023-04-25T01:15:59;98044.59;;;8.55;98.16
51099;BME280;37146;48.210;16.234;2023-04-25T01:18:25;98044.97;;;8.48;97.55
51099;BME280;37146;48.210;16.234;2023-04-25T01:20:51;98043.75;;;8.54;98.90
51099;BME280;37146;48.210;16.234;2023-04-25T01:23:16;98046.31;;;8.56;97.71
51099;BME280;37146;48.210;16.234;2023-04-25T01:25:41;98042.03;;;8.53;96.67
51099;BME280;37146;48.210;16.234;2023-04-25T01:28:07;98040.59;;;8.47;97.21
51099;BME280;37146;48.210;16.234;2023-04-25T01:30:32;98040.22;;;8.54;97.39
51099;BME280;37146;48.210;16.234;2023-04-25T01:32:58;98032.50;;;8.49;97.83
51099;BME280;37146;48.210;16.234;2023-04-25T01:35:24;98026.78;;;8.55;95.16
51099;BME280;37146;48.210;16.234;2023-04-25T01:37:50;98043.47;;;8.59;96.54
51099;BME280;37146;48.210;16.234;2023-04-25T01:40:15;98035.28;;;8.46;96.06
51099;BME280;37146;48.210;16.234;2023-04-25T01:42:43;98039.09;;;8.42;96.94
51099;BME280;37146;48.210;16.234;2023-04-25T01:45:09;98035.50;;;8.43;96.96
51099;BME280;37146;48.210;16.234;2023-04-25T01:47:35;98036.16;;;8.46;96.66
51099;BME280;37146;48.210;16.234;2023-04-25T01:50:01;98035.50;;;8.43;97.01
51099;BME280;37146;48.210;16.234;2023-04-25T01:52:27;98036.50;;;8.40;100.00
51099;BME280;37146;48.210;16.234;2023-04-25T01:54:52;98034.53;;;8.44;96.49
51099;BME280;37146;48.210;16.234;2023-04-25T01:57:18;98034.63;;;8.42;96.16
51099;BME280;37146;48.210;16.234;2023-04-25T01:59:43;98041.78;;;8.42;98.44
51099;BME280;37146;48.210;16.234;2023-04-25T02:02:08;98034.28;;;8.32;98.94
51099;BME280;37146;48.210;16.234;2023-04-25T02:04:34;98050.09;;;8.35;97.46
51099;BME280;37146;48.210;16.234;2023-04-25T02:06:59;98045.41;;;8.25;97.76
51099;BME280;37146;48.210;16.234;2023-04-25T02:09:24;98042.06;;;8.21;98.07
51099;BME280;37146;48.210;16.234;2023-04-25T02:11:49;98046.88;;;8.30;98.59
51099;BME280;37146;48.210;16.234;2023-04-25T02:14:15;98046.53;;;8.20;94.97
51099;BME280;37146;48.210;16.234;2023-04-25T02:16:40;98034.53;;;8.13;100.00
51099;BME280;37146;48.210;16.234;2023-04-25T02:19:05;98032.97;;;8.09;99.46
51099;BME280;37146;48.210;16.234;2023-04-25T02:21:31;98030.66;;;8.19;97.71
51099;BME280;37146;48.210;16.234;2023-04-25T02:23:57;98034.84;;;8.07;100.00
51099;BME280;37146;48.210;16.234;2023-04-25T02:26:22;98030.13;;;8.12;100.00
51099;BME280;37146;48.210;16.234;2023-04-25T02:28:48;98033.34;;;8.03;99.98
51099;BME280;37146;48.210;16.234;2023-04-25T02:31:14;98039.66;;;8.00;100.00
51099;BME280;37146;48.210;16.234;2023-04-25T02:33:39;98032.56;;;8.01;99.95
51099;BME280;37146;48.210;16.234;2023-04-25T02:36:04;98035.56;;;7.95;100.00
51099;BME280;37146;48.210;16.234;2023-04-25T02:38:29;98029.22;;;7.97;100.00
51099;BME280;37146;48.210;16.234;2023-04-25T02:40:55;98026.63;;;7.96;99.45
51099;BME280;37146;48.210;16.234;2023-04-25T02:43:20;98021.41;;;7.94;99.56
51099;BME280;37146;48.210;16.234;2023-04-25T02:45:45;98032.47;;;8.02;100.00
51099;BME280;37146;48.210;16.234;2023-04-25T02:48:10;98027.25;;;7.85;99.91
51099;BME280;37146;48.210;16.234;2023-04-25T02:50:36;98025.63;;;7.98;97.99
51099;BME280;37146;48.210;16.234;2023-04-25T02:53:01;98017.97;;;7.92;100.00
51099;BME280;37146;48.210;16.234;2023-04-25T02:55:26;98014.97;;;7.82;100.00
51099;BME280;37146;48.210;16.234;2023-04-25T02:57:51;98007.56;;;7.87;100.00
51099;BME280;37146;48.210;16.234;2023-04-25T03:00:17;98016.50;;;7.86;99.48
51099;BME280;37146;48.210;16.234;2023-04-25T03:02:42;98009.81;;;7.79;99.86
51099;BME280;37146;48.210;16.234;2023-04-25T03:05:09;98016.09;;;7.78;96.91
51099;BME280;37146;48.210;16.234;2023-04-25T03:07:34;98014.00;;;7.83;99.27
51099;BME280;37146;48.210;16.234;2023-04-25T03:09:59;98014.38;;;7.77;99.66
51099;BME280;37146;48.210;16.234;2023-04-25T03:12:25;98008.25;;;7.75;98.54
51099;BME280;37146;48.210;16.234;2023-04-25T03:14:50;98004.66;;;7.76;98.24
51099;BME280;37146;48.210;16.234;2023-04-25T03:17:15;98012.47;;;7.79;97.46
51099;BME280;37146;48.210;16.234;2023-04-25T03:19:41;98014.47;;;7.76;99.66
51099;BME280;37146;48.210;16.234;2023-04-25T03:22:06;98008.94;;;7.63;99.98
51099;BME280;37146;48.210;16.234;2023-04-25T03:24:31;98001.75;;;7.65;97.77
51099;BME280;37146;48.210;16.234;2023-04-25T03:26:56;98003.09;;;7.72;97.90
51099;BME280;37146;48.210;16.234;2023-04-25T03:29:21;98002.41;;;7.68;97.16
51099;BME280;37146;48.210;16.234;2023-04-25T03:31:49;98010.50;;;7.67;98.59
51099;BME280;37146;48.210;16.234;2023-04-25T03:34:14;98007.69;;;7.70;97.08
51099;BME280;37146;48.210;16.234;2023-04-25T03:36:40;98009.31;;;7.72;95.06
51099;BME280;37146;48.210;16.234;2023-04-25T03:39:05;98009.03;;;7.61;95.50
51099;BME280;37146;48.210;16.234;2023-04-25T03:41:31;98013.31;;;7.64;95.48
51099;BME280;37146;48.210;16.234;2023-04-25T03:43:56;98021.50;;;7.61;96.62
51099;BME280;37146;48.210;16.234;2023-04-25T03:46:22;98019.00;;;7.57;98.00
51099;BME280;37146;48.210;16.234;2023-04-25T03:48:47;98010.91;;;7.43;96.98
51099;BME280;37146;48.210;16.234;2023-04-25T03:51:12;98028.88;;;7.55;97.24
51099;BME280;37146;48.210;16.234;2023-04-25T03:53:37;98015.47;;;7.41;99.51
51099;BME280;37146;48.210;16.234;2023-04-25T03:56:03;98023.38;;;7.42;97.24
51099;BME280;37146;48.210;16.234;2023-04-25T03:58:28;98032.44;;;7.38;98.53
51099;BME280;37146;48.210;16.234;2023-04-25T04:00:53;98021.38;;;7.30;97.82
51099;BME280;37146;48.210;16.234;2023-04-25T04:03:18;98028.81;;;7.23;100.00
51099;BME280;37146;48.210;16.234;2023-04-25T04:05:43;98035.25;;;7.19;99.49
51099;BME280;37146;48.210;16.234;2023-04-25T04:08:10;98039.06;;;7.31;99.93
51099;BME280;37146;48.210;16.234;2023-04-25T04:10:35;98038.41;;;7.10;98.24
51099;BME280;37146;48.210;16.234;2023-04-25T04:13:00;98034.66;;;7.14;100.00
51099;BME280;37146;48.210;16.234;2023-04-25T04:15:25;98043.38;;;6.83;100.00
51099;BME280;37146;48.210;16.234;2023-04-25T04:17:50;98041.41;;;6.86;100.00
51099;BME280;37146;48.210;16.234;2023-04-25T04:20:16;98049.16;;;6.73;100.00
51099;BME280;37146;48.210;16.234;2023-04-25T04:22:41;98045.47;;;6.76;100.00
51099;BME280;37146;48.210;16.234;2023-04-25T04:25:06;98045.47;;;6.76;100.00
51099;BME280;37146;48.210;16.234;2023-04-25T04:27:32;98052.22;;;6.65;100.00
51099;BME280;37146;48.210;16.234;2023-04-25T04:29:57;98049.31;;;6.53;100.00
51099;BME280;37146;48.210;16.234;2023-04-25T04:32:22;98046.28;;;6.60;100.00
51099;BME280;37146;48.210;16.234;2023-04-25T04:34:48;98054.72;;;6.69;100.00
51099;BME280;37146;48.210;16.234;2023-04-25T04:37:13;98060.44;;;6.43;100.00
51099;BME280;37146;48.210;16.234;2023-04-25T04:39:39;98057.34;;;6.51;100.00
51099;BME280;37146;48.210;16.234;2023-04-25T04:42:05;98066.28;;;6.50;100.00
51099;BME280;37146;48.210;16.234;2023-04-25T04:44:31;98062.81;;;6.30;100.00
51099;BME280;37146;48.210;16.234;2023-04-25T04:46:59;98062.91;;;6.46;100.00
51099;BME280;37146;48.210;16.234;2023-04-25T04:49:24;98052.28;;;6.46;100.00
51099;BME280;37146;48.210;16.234;2023-04-25T04:51:49;98059.88;;;6.37;100.00
51099;BME280;37146;48.210;16.234;2023-04-25T04:54:15;98062.59;;;6.35;100.00
51099;BME280;37146;48.210;16.234;2023-04-25T04:56:40;98058.38;;;6.48;100.00
51099;BME280;37146;48.210;16.234;2023-04-25T04:59:06;98052.50;;;6.42;100.00
51099;BME280;37146;48.210;16.234;2023-04-25T05:01:32;98059.25;;;6.49;100.00
51099;BME280;37146;48.210;16.234;2023-04-25T05:04:00;98059.06;;;6.52;100.00
51099;BME280;37146;48.210;16.234;2023-04-25T05:06:25;98057.81;;;6.42;100.00
51099;BME280;37146;48.210;16.234;2023-04-25T05:08:50;98069.47;;;6.39;100.00
51099;BME280;37146;48.210;16.234;2023-04-25T05:11:16;98064.00;;;6.42;100.00
51099;BME280;37146;48.210;16.234;2023-04-25T05:13:41;98072.13;;;6.22;100.00
51099;BME280;37146;48.210;16.234;2023-04-25T05:16:06;98069.75;;;6.15;100.00
51099;BME280;37146;48.210;16.234;2023-04-25T05:18:31;98069.38;;;6.23;100.00
51099;BME280;37146;48.210;16.234;2023-04-25T05:20:57;98076.69;;;6.18;100.00
51099;BME280;37146;48.210;16.234;2023-04-25T05:23:22;98065.31;;;6.33;100.00
51099;BME280;37146;48.210;16.234;2023-04-25T05:25:47;98070.63;;;6.33;100.00
51099;BME280;37146;48.210;16.234;2023-04-25T05:28:12;98054.56;;;6.37;100.00
51099;BME280;37146;48.210;16.234;2023-04-25T05:30:38;98055.66;;;6.50;100.00
51099;BME280;37146;48.210;16.234;2023-04-25T05:33:03;98047.44;;;6.72;100.00
51099;BME280;37146;48.210;16.234;2023-04-25T05:35:28;98048.44;;;6.87;100.00
51099;BME280;37146;48.210;16.234;2023-04-25T05:37:53;98056.25;;;6.90;100.00
51099;BME280;37146;48.210;16.234;2023-04-25T05:40:19;98044.06;;;7.04;100.00
51099;BME280;37146;48.210;16.234;2023-04-25T05:42:44;98046.41;;;7.26;100.00
51099;BME280;37146;48.210;16.234;2023-04-25T05:45:09;98038.63;;;7.39;100.00
51099;BME280;37146;48.210;16.234;2023-04-25T05:47:34;98049.53;;;7.50;100.00
51099;BME280;37146;48.210;16.234;2023-04-25T05:50:00;98042.44;;;7.67;100.00
51099;BME280;37146;48.210;16.234;2023-04-25T05:52:25;98038.16;;;7.64;100.00
51099;BME280;37146;48.210;16.234;2023-04-25T05:54:50;98030.75;;;7.69;99.18
51099;BME280;37146;48.210;16.234;2023-04-25T05:57:22;98038.47;;;7.90;98.95
51099;BME280;37146;48.210;16.234;2023-04-25T05:59:48;98036.75;;;8.05;96.13
51099;BME280;37146;48.210;16.234;2023-04-25T06:02:13;98034.84;;;8.07;96.06
51099;BME280;37146;48.210;16.234;2023-04-25T06:04:38;98043.28;;;8.15;96.34
51099;BME280;37146;48.210;16.234;2023-04-25T06:07:03;98032.94;;;8.25;94.57
51099;BME280;37146;48.210;16.234;2023-04-25T06:09:29;98034.06;;;8.37;92.28
51099;BME280;37146;48.210;16.234;2023-04-25T06:11:54;98030.59;;;8.51;92.10
51099;BME280;37146;48.210;16.234;2023-04-25T06:14:19;98036.00;;;8.49;97.11
51099;BME280;37146;48.210;16.234;2023-04-25T06:16:44;98033.38;;;8.64;92.27
51099;BME280;37146;48.210;16.234;2023-04-25T06:19:10;98025.81;;;8.87;91.06
51099;BME280;37146;48.210;16.234;2023-04-25T06:21:35;98025.06;;;8.99;86.60
51099;BME280;37146;48.210;16.234;2023-04-25T06:24:00;98027.94;;;9.10;84.74
51099;BME280;37146;48.210;16.234;2023-04-25T06:26:25;98030.13;;;9.18;84.67
51099;BME280;37146;48.210;16.234;2023-04-25T06:28:51;98027.75;;;9.28;87.64
51099;BME280;37146;48.210;16.234;2023-04-25T06:31:16;98025.34;;;9.23;82.80
51099;BME280;37146;48.210;16.234;2023-04-25T06:33:41;98023.66;;;9.37;82.26
51099;BME280;37146;48.210;16.234;2023-04-25T06:36:06;98031.06;;;9.61;82.46
51099;BME280;37146;48.210;16.234;2023-04-25T06:38:31;98027.50;;;9.74;81.89
51099;BME280;37146;48.210;16.234;2023-04-25T06:40:57;98025.00;;;10.13;81.51
51099;BME280;37146;48.210;16.234;2023-04-25T06:43:22;98019.88;;;10.38;79.18
51099;BME280;37146;48.210;16.234;2023-04-25T06:45:47;98021.50;;;10.40;79.43
51099;BME280;37146;48.210;16.234;2023-04-25T06:48:12;98025.91;;;10.27;78.62
51099;BME280;37146;48.210;16.234;2023-04-25T06:50:38;98023.00;;;10.17;78.67
51099;BME280;37146;48.210;16.234;2023-04-25T06:53:03;98020.88;;;10.22;77.02
51099;BME280;37146;48.210;16.234;2023-04-25T06:55:28;98016.31;;;10.24;75.90
51099;BME280;37146;48.210;16.234;2023-04-25T06:57:53;98017.47;;;10.47;76.48
51099;BME280;37146;48.210;16.234;2023-04-25T07:00:18;98006.13;;;10.57;77.89
51099;BME280;37146;48.210;16.234;2023-04-25T07:02:44;98013.19;;;10.58;76.21
51099;BME280;37146;48.210;16.234;2023-04-25T07:05:10;98008.09;;;10.93;76.54
51099;BME280;37146;48.210;16.234;2023-04-25T07:07:35;97999.94;;;10.82;75.05
51099;BME280;37146;48.210;16.234;2023-04-25T07:10:00;98005.75;;;10.76;74.06
51099;BME280;37146;48.210;16.234;2023-04-25T07:12:25;98007.22;;;10.67;73.92
51099;BME280;37146;48.210;16.234;2023-04-25T07:14:51;98000.16;;;10.66;75.73
51099;BME280;37146;48.210;16.234;2023-04-25T07:17:16;97989.56;;;11.16;75.71
51099;BME280;37146;48.210;16.234;2023-04-25T07:19:41;97993.09;;;11.29;73.69
51099;BME280;37146;48.210;16.234;2023-04-25T07:22:06;97991.50;;;11.27;73.24
51099;BME280;37146;48.210;16.234;2023-04-25T07:24:32;97989.84;;;11.50;70.56
51099;BME280;37146;48.210;16.234;2023-04-25T07:26:57;97985.53;;;11.60;71.43
51099;BME280;37146;48.210;16.234;2023-04-25T07:29:22;97995.44;;;11.84;70.78
51099;BME280;37146;48.210;16.234;2023-04-25T07:31:48;97986.38;;;11.74;69.24
51099;BME280;37146;48.210;16.234;2023-04-25T07:34:13;97991.78;;;11.48;70.22
51099;BME280;37146;48.210;16.234;2023-04-25T07:36:38;97996.25;;;11.60;71.08
51099;BME280;37146;48.210;16.234;2023-04-25T07:39:03;97993.34;;;11.64;71.80
51099;BME280;37146;48.210;16.234;2023-04-25T07:41:29;97983.28;;;11.91;70.46
51099;BME280;37146;48.210;16.234;2023-04-25T07:43:54;97981.47;;;12.41;71.06
51099;BME280;37146;48.210;16.234;2023-04-25T07:46:19;97976.97;;;12.41;68.93
51099;BME280;37146;48.210;16.234;2023-04-25T07:48:44;97975.44;;;12.26;69.02
51099;BME280;37146;48.210;16.234;2023-04-25T07:51:10;97977.28;;;12.61;68.83
51099;BME280;37146;48.210;16.234;2023-04-25T07:53:35;97978.25;;;12.60;66.99
51099;BME280;37146;48.210;16.234;2023-04-25T07:56:02;97967.47;;;12.84;65.70
51099;BME280;37146;48.210;16.234;2023-04-25T07:58:27;97966.25;;;12.99;66.98
51099;BME280;37146;48.210;16.234;2023-04-25T08:00:52;97962.47;;;13.13;65.77
51099;BME280;37146;48.210;16.234;2023-04-25T08:03:18;97968.09;;;13.22;62.79
51099;BME280;37146;48.210;16.234;2023-04-25T08:05:43;97965.63;;;12.84;64.08
51099;BME280;37146;48.210;16.234;2023-04-25T08:08:08;97950.63;;;12.82;65.32
51099;BME280;37146;48.210;16.234;2023-04-25T08:10:33;97973.16;;;12.32;68.38
51099;BME280;37146;48.210;16.234;2023-04-25T08:12:59;97964.38;;;12.30;66.60
51099;BME280;37146;48.210;16.234;2023-04-25T08:15:24;97951.88;;;13.12;65.04
51099;BME280;37146;48.210;16.234;2023-04-25T08:17:50;97953.97;;;13.42;62.12
51099;BME280;37146;48.210;16.234;2023-04-25T08:20:15;97950.66;;;13.16;65.10
51099;BME280;37146;48.210;16.234;2023-04-25T08:22:40;97951.69;;;12.68;67.22
51099;BME280;37146;48.210;16.234;2023-04-25T08:25:06;97947.44;;;12.88;66.55
51099;BME280;37146;48.210;16.234;2023-04-25T08:27:31;97944.31;;;13.17;64.11
51099;BME280;37146;48.210;16.234;2023-04-25T08:29:56;97945.84;;;12.74;62.78
51099;BME280;37146;48.210;16.234;2023-04-25T08:32:22;97947.22;;;13.71;62.03
51099;BME280;37146;48.210;16.234;2023-04-25T08:34:48;97946.84;;;14.08;59.86
51099;BME280;37146;48.210;16.234;2023-04-25T08:37:13;97930.38;;;14.55;56.76
51099;BME280;37146;48.210;16.234;2023-04-25T08:39:38;97938.84;;;13.85;59.78
51099;BME280;37146;48.210;16.234;2023-04-25T08:42:05;97945.22;;;14.17;59.42
51099;BME280;37146;48.210;16.234;2023-04-25T08:44:33;97943.94;;;12.99;62.05
51099;BME280;37146;48.210;16.234;2023-04-25T08:46:58;97937.28;;;12.69;63.59
51099;BME280;37146;48.210;16.234;2023-04-25T08:49:24;97944.00;;;12.63;67.13
51099;BME280;37146;48.210;16.234;2023-04-25T08:51:49;97947.56;;;12.87;64.64
51099;BME280;37146;48.210;16.234;2023-04-25T08:54:16;97946.72;;;13.09;65.58
51099;BME280;37146;48.210;16.234;2023-04-25T08:56:43;97947.34;;;13.12;69.17
51099;BME280;37146;48.210;16.234;2023-04-25T08:59:10;97934.41;;;12.83;65.17
51099;BME280;37146;48.210;16.234;2023-04-25T09:01:35;97934.09;;;13.89;64.29
51099;BME280;37146;48.210;16.234;2023-04-25T09:04:01;97936.59;;;13.12;69.96
51099;BME280;37146;48.210;16.234;2023-04-25T09:06:27;97940.28;;;12.89;68.28
51099;BME280;37146;48.210;16.234;2023-04-25T09:08:52;97937.94;;;12.84;69.29
51099;BME280;37146;48.210;16.234;2023-04-25T09:11:18;97959.22;;;12.16;71.29
51099;BME280;37146;48.210;16.234;2023-04-25T09:13:43;97957.91;;;11.60;68.60
51099;BME280;37146;48.210;16.234;2023-04-25T09:16:08;97961.19;;;11.26;71.16
51099;BME280;37146;48.210;16.234;2023-04-25T09:18:35;97975.91;;;10.95;78.12
51099;BME280;37146;48.210;16.234;2023-04-25T09:21:10;97982.59;;;10.49;96.60
51099;BME280;37146;48.210;16.234;2023-04-25T09:23:40;97986.53;;;10.16;100.00
51099;BME280;37146;48.210;16.234;2023-04-25T09:26:06;97985.94;;;9.98;98.13
51099;BME280;37146;48.210;16.234;2023-04-25T09:28:32;97974.09;;;10.02;100.00
51099;BME280;37146;48.210;16.234;2023-04-25T09:30:57;97975.66;;;10.19;100.00
51099;BME280;37146;48.210;16.234;2023-04-25T09:33:29;97984.09;;;10.40;100.00
51099;BME280;37146;48.210;16.234;2023-04-25T09:35:56;97987.72;;;10.52;100.00
51099;BME280;37146;48.210;16.234;2023-04-25T09:38:26;97995.31;;;10.18;100.00
51099;BME280;37146;48.210;16.234;2023-04-25T09:40:51;97990.84;;;9.49;100.00
51099;BME280;37146;48.210;16.234;2023-04-25T09:43:20;97987.34;;;9.20;100.00
51099;BME280;37146;48.210;16.234;2023-04-25T09:45:46;97984.63;;;9.49;96.98
51099;BME280;37146;48.210;16.234;2023-04-25T09:48:15;97979.50;;;9.46;95.51
51099;BME280;37146;48.210;16.234;2023-04-25T09:50:41;97984.63;;;9.63;100.00
51099;BME280;37146;48.210;16.234;2023-04-25T09:53:06;97978.06;;;9.82;100.00
51099;BME280;37146;48.210;16.234;2023-04-25T09:55:32;97980.50;;;9.99;100.00
51099;BME280;37146;48.210;16.234;2023-04-25T09:58:00;97980.22;;;10.17;100.00
51099;BME280;37146;48.210;16.234;2023-04-25T10:00:28;97986.75;;;10.13;100.00
51099;BME280;37146;48.210;16.234;2023-04-25T10:02:53;97988.47;;;10.14;100.00
51099;BME280;37146;48.210;16.234;2023-04-25T10:05:19;97984.63;;;10.18;100.00
51099;BME280;37146;48.210;16.234;2023-04-25T10:07:45;97988.91;;;10.20;100.00
51099;BME280;37146;48.210;16.234;2023-04-25T10:10:11;98004.13;;;10.33;100.00
51099;BME280;37146;48.210;16.234;2023-04-25T10:12:37;97992.03;;;10.27;95.91
51099;BME280;37146;48.210;16.234;2023-04-25T10:15:04;97989.50;;;9.84;85.87
51099;BME280;37146;48.210;16.234;2023-04-25T10:17:30;97988.66;;;9.56;84.10
51099;BME280;37146;48.210;16.234;2023-04-25T10:19:56;97971.28;;;9.49;87.27
51099;BME280;37146;48.210;16.234;2023-04-25T10:22:43;97969.69;;;9.46;89.90
51099;BME280;37146;48.210;16.234;2023-04-25T10:25:07;97969.72;;;9.73;96.46
51099;BME280;37146;48.210;16.234;2023-04-25T10:27:33;97949.56;;;10.10;95.54
51099;BME280;37146;48.210;16.234;2023-04-25T10:32:31;97942.31;;;12.96;69.82
51099;BME280;37146;48.210;16.234;2023-04-25T10:34:57;97933.25;;;15.06;70.01
51099;BME280;37146;48.210;16.234;2023-04-25T10:37:23;97935.25;;;14.07;73.52
51099;BME280;37146;48.210;16.234;2023-04-25T10:39:48;97935.88;;;13.22;81.45
51099;BME280;37146;48.210;16.234;2023-04-25T10:42:14;97927.94;;;12.97;80.86
51099;BME280;37146;48.210;16.234;2023-04-25T10:44:39;97926.41;;;15.93;65.70
51099;BME280;37146;48.210;16.234;2023-04-25T10:47:06;97933.50;;;17.58;59.59
51099;BME280;37146;48.210;16.234;2023-04-25T10:49:38;97924.19;;;18.97;52.71
51099;BME280;37146;48.210;16.234;2023-04-25T10:55:02;97912.81;;;18.93;52.49
51099;BME280;37146;48.210;16.234;2023-04-25T11:00:05;97905.81;;;17.74;61.51
51099;BME280;37146;48.210;16.234;2023-04-25T11:02:30;97899.72;;;15.70;64.94
51099;BME280;37146;48.210;16.234;2023-04-25T11:04:56;97895.84;;;15.12;61.54
51099;BME280;37146;48.210;16.234;2023-04-25T11:09:55;97905.72;;;15.94;56.48
51099;BME280;37146;48.210;16.234;2023-04-25T11:12:21;97899.94;;;15.57;60.83
51099;BME280;37146;48.210;16.234;2023-04-25T11:14:46;97906.84;;;14.15;64.38
51099;BME280;37146;48.210;16.234;2023-04-25T11:17:11;97930.97;;;13.38;66.50
51099;BME280;37146;48.210;16.234;2023-04-25T11:19:36;97953.25;;;12.59;72.01
51099;BME280;37146;48.210;16.234;2023-04-25T11:22:02;97993.34;;;11.64;77.66
51099;BME280;37146;48.210;16.234;2023-04-25T11:26:53;98026.91;;;10.11;100.00
51099;BME280;37146;48.210;16.234;2023-04-25T11:29:18;98027.56;;;9.46;100.00
51099;BME280;37146;48.210;16.234;2023-04-25T11:31:44;98020.31;;;9.19;100.00
51099;BME280;37146;48.210;16.234;2023-04-25T11:34:10;98008.19;;;8.84;100.00
51099;BME280;37146;48.210;16.234;2023-04-25T11:36:36;98010.19;;;8.80;100.00
51099;BME280;37146;48.210;16.234;2023-04-25T11:39:02;98004.00;;;8.80;100.00
51099;BME280;37146;48.210;16.234;2023-04-25T11:41:28;98012.06;;;8.64;100.00
51099;BME280;37146;48.210;16.234;2023-04-25T11:43:53;98003.72;;;8.85;100.00
51099;BME280;37146;48.210;16.234;2023-04-25T11:46:19;97994.19;;;8.95;100.00
51099;BME280;37146;48.210;16.234;2023-04-25T11:48:45;98000.63;;;9.63;100.00
51099;BME280;37146;48.210;16.234;2023-04-25T11:51:10;98003.19;;;10.06;100.00
51099;BME280;37146;48.210;16.234;2023-04-25T11:53:36;97984.63;;;15.24;84.79
51099;BME280;37146;48.210;16.234;2023-04-25T11:56:01;97985.59;;;18.52;64.08
51099;BME280;37146;48.210;16.234;2023-04-25T11:58:27;97989.22;;;19.23;62.41
51099;BME280;37146;48.210;16.234;2023-04-25T12:00:52;97985.69;;;17.68;67.57
51099;BME280;37146;48.210;16.234;2023-04-25T12:03:18;97988.63;;;14.45;88.89
51099;BME280;37146;48.210;16.234;2023-04-25T12:05:44;97988.97;;;14.19;81.06
51099;BME280;37146;48.210;16.234;2023-04-25T12:08:10;97983.50;;;13.65;78.52
51099;BME280;37146;48.210;16.234;2023-04-25T12:10:37;97980.91;;;13.18;76.19
51099;BME280;37146;48.210;16.234;2023-04-25T12:13:17;97984.06;;;12.42;97.94
51099;BME280;37146;48.210;16.234;2023-04-25T12:15:42;97977.03;;;12.52;89.69
51099;BME280;37146;48.210;16.234;2023-04-25T12:18:07;97981.28;;;13.36;81.97
51099;BME280;37146;48.210;16.234;2023-04-25T12:20:32;97985.47;;;14.07;80.00
51099;BME280;37146;48.210;16.234;2023-04-25T12:22:58;97979.56;;;14.46;80.48
51099;BME280;37146;48.210;16.234;2023-04-25T12:25:36;97974.75;;;13.96;81.32
51099;BME280;37146;48.210;16.234;2023-04-25T12:28:14;97975.16;;;14.23;74.21
51099;BME280;37146;48.210;16.234;2023-04-25T12:33:21;97964.91;;;13.17;73.01
51099;BME280;37146;48.210;16.234;2023-04-25T12:35:47;97969.53;;;13.71;73.64
51099;BME280;37146;48.210;16.234;2023-04-25T12:38:20;97964.78;;;13.18;75.18
51099;BME280;37146;48.210;16.234;2023-04-25T12:40:45;97965.16;;;13.59;65.68
51099;BME280;37146;48.210;16.234;2023-04-25T12:43:10;97956.88;;;13.51;74.26
51099;BME280;37146;48.210;16.234;2023-04-25T12:45:36;97956.13;;;13.14;66.59
51099;BME280;37146;48.210;16.234;2023-04-25T12:48:01;97958.06;;;13.69;64.81
51099;BME280;37146;48.210;16.234;2023-04-25T12:50:26;97959.00;;;13.91;70.82
51099;BME280;37146;48.210;16.234;2023-04-25T12:52:51;97958.19;;;14.12;65.93
51099;BME280;37146;48.210;16.234;2023-04-25T12:55:17;97943.91;;;14.11;65.44
51099;BME280;37146;48.210;16.234;2023-04-25T12:57:42;97935.25;;;13.07;63.49
51099;BME280;37146;48.210;16.234;2023-04-25T13:00:07;97931.34;;;13.56;63.74